Ru Kontio — OIRV — position and weather

sailwx.info

Track history (hours):
 
Tides and Currents Weather Stations Pressure Air Temp Water Temp Dewpoint Dewpoint Depression Visibility Wind Speed Wind Dir Waves Ship Positions

Ru Kontio

Last reported at 2014-Aug-22 19:33 UTC. Time now 2014-Aug-22 19:41 UTC.
Position N 60°10' E 025°00'.

Type: Other ship. MMSI: 230251000.

Date/timePositionNaut miles runAvg speedWind from/ knotsBaromVisibWave heightAir tempDewpointWater temp
2014-Aug-22 19:33N 60°10' E 025°00'7 7.0
2014-Aug-22 18:30N 60°03' E 024°58'7 7.5
2014-Aug-22 17:33N 59°58' E 025°09'2 1.8
2014-Aug-22 16:28N 59°59' E 025°05'1 0.7
2014-Aug-22 15:25N 59°59' E 025°06'4 4.3
2014-Aug-22 14:34N 59°59' E 025°14'1 0.6
2014-Aug-22 13:09N 59°59' E 025°12'4 2.0
2014-Aug-22 11:21N 59°59' E 025°05'5 2.7
2014-Aug-22 09:32N 59°59' E 025°15'5 4.4
2014-Aug-22 08:26N 59°58' E 025°05'4 3.1
2014-Aug-22 07:13N 59°59' E 025°13'8 9.9
2014-Aug-22 06:26N 59°59' E 024°57'10 0.8
2014-Aug-21 18:21N 59°59' E 025°18'7 3.7
2014-Aug-21 16:30N 59°58' E 025°04'7 7.1
2014-Aug-21 15:33N 59°59' E 025°17'4 4.0
2014-Aug-21 14:27N 59°59' E 025°26'8 2.5
2014-Aug-21 11:20N 59°59' E 025°11'4 4.4
2014-Aug-21 10:31N 59°58' E 025°04'3 2.9
2014-Aug-21 09:33N 59°57' E 024°58'4 3.6
2014-Aug-21 08:33N 60°01' E 024°58'6 6.1
2014-Aug-21 07:34N 60°00' E 025°10'5 4.5
2014-Aug-21 06:26N 59°60' E 025°20'8 7.6
2014-Aug-21 05:23N 59°58' E 025°04'4 4.8
2014-Aug-21 04:31N 59°59' E 025°12'1 0.6
2014-Aug-21 03:32N 59°59' E 025°13'3 0.5
2014-Aug-20 22:33N 59°60' E 025°08'4 0.8
2014-Aug-20 17:33N 59°59' E 025°01'1 1.3
2014-Aug-20 16:27N 59°58' E 024°60'4 4.2
2014-Aug-20 15:33N 60°01' E 024°58'5 5.1
2014-Aug-20 14:33N 60°06' E 024°59'3 3.1
2014-Aug-20 13:33N 60°09' E 025°00'1 1.2
2014-Aug-20 12:32N 60°10' E 024°58'0 0.0
2014-Aug-20 11:32N 60°10' E 024°58'0 0.0
2014-Aug-20 10:32N 60°10' E 024°58'0 0.0
2014-Aug-20 09:31N 60°10' E 024°58'0 0.0
2014-Aug-20 08:31N 60°10' E 024°58'0 0.0
2014-Aug-20 07:31N 60°10' E 024°58'0 0.0
2014-Aug-20 06:31N 60°10' E 024°58'0 0.0
2014-Aug-20 05:31N 60°10' E 024°58'0 0.0
2014-Aug-20 04:31N 60°10' E 024°58'0 0.0
2014-Aug-20 03:31N 60°10' E 024°58'0 0.0
2014-Aug-20 02:31N 60°10' E 024°58'0 0.0
2014-Aug-20 00:31N 60°10' E 024°58'0 0.0
2014-Aug-19 18:29N 60°10' E 024°58'0 0.0
2014-Aug-19 17:32N 60°10' E 024°58'0 0.0
2014-Aug-19 16:32N 60°10' E 024°58'0 0.0
2014-Aug-19 15:32N 60°10' E 024°58'0 0.0
2014-Aug-19 14:32N 60°10' E 024°58'0 0.0
2014-Aug-19 13:32N 60°10' E 024°58'0 0.0
2014-Aug-19 12:32N 60°10' E 024°58'0 0.0
2014-Aug-19 11:32N 60°10' E 024°58'0 0.0
2014-Aug-19 10:32N 60°10' E 024°58'0 0.0
2014-Aug-19 09:32N 60°10' E 024°58'0 0.0
2014-Aug-19 08:32N 60°10' E 024°58'0 0.0
2014-Aug-19 07:32N 60°10' E 024°58'0 0.0
2014-Aug-19 06:32N 60°10' E 024°58'0 0.0
2014-Aug-19 05:32N 60°10' E 024°58'0 0.0
2014-Aug-19 04:32N 60°10' E 024°58'0 0.0
2014-Aug-19 03:32N 60°10' E 024°58'0 0.0
2014-Aug-18 18:26N 60°10' E 024°58'0 0.0
2014-Aug-18 17:29N 60°10' E 024°58'0 0.0
2014-Aug-18 16:34N 60°10' E 024°58'0 0.0
2014-Aug-18 15:34N 60°10' E 024°58'0 0.0
2014-Aug-18 14:34N 60°10' E 024°58'0 0.0
2014-Aug-18 13:31N 60°10' E 024°58'0 0.0
2014-Aug-18 12:34N 60°10' E 024°58'0 0.0
2014-Aug-18 11:31N 60°10' E 024°58'0 0.0
2014-Aug-18 10:34N 60°10' E 024°58'0 0.0
2014-Aug-18 09:31N 60°10' E 024°58'0 0.0
2014-Aug-18 08:34N 60°10' E 024°58'0 0.0
2014-Aug-18 07:34N 60°10' E 024°58'0 0.0
2014-Aug-18 06:31N 60°10' E 024°58'0 0.0
2014-Aug-18 05:34N 60°10' E 024°58'0 0.0
2014-Aug-18 04:34N 60°10' E 024°58'0 0.0
2014-Aug-18 03:34N 60°10' E 024°58'0 0.0
2014-Aug-18 00:19N 60°10' E 024°58'0 0.0
2014-Aug-17 18:31N 60°10' E 024°58'0 0.0
2014-Aug-17 17:34N 60°10' E 024°58'0 0.0
2014-Aug-17 16:34N 60°10' E 024°58'0 0.0
2014-Aug-17 15:31N 60°10' E 024°58'0 0.0
2014-Aug-17 14:34N 60°10' E 024°58'0 0.0
2014-Aug-17 13:34N 60°10' E 024°58'0 0.0
2014-Aug-17 12:34N 60°10' E 024°58'0 0.0
2014-Aug-17 11:34N 60°10' E 024°58'0 0.0
2014-Aug-17 10:34N 60°10' E 024°58'0 0.0
2014-Aug-17 09:34N 60°10' E 024°58'0 0.0
2014-Aug-17 08:34N 60°10' E 024°58'0 0.0
2014-Aug-17 07:34N 60°10' E 024°58'0 0.0
2014-Aug-17 06:34N 60°10' E 024°58'0 0.0
2014-Aug-17 05:34N 60°10' E 024°58'0 0.0
2014-Aug-17 04:31N 60°10' E 024°58'0 0.0
2014-Aug-17 03:31N 60°10' E 024°58'0 0.0
2014-Aug-17 02:34N 60°10' E 024°58'0 0.0
2014-Aug-17 00:10N 60°10' E 024°58'0 0.0
2014-Aug-16 21:31N 60°10' E 024°58'0 0.0
2014-Aug-16 18:31N 60°10' E 024°58'0 0.0
2014-Aug-16 17:34N 60°10' E 024°58'0 0.0
2014-Aug-16 16:34N 60°10' E 024°58'0 0.0
2014-Aug-16 15:34N 60°10' E 024°58'0 0.0
2014-Aug-16 14:34N 60°10' E 024°58'0 0.0
2014-Aug-16 13:34N 60°10' E 024°58'0 0.0
2014-Aug-16 12:34N 60°10' E 024°58'0 0.0
2014-Aug-16 11:34N 60°10' E 024°58'0 0.0
2014-Aug-16 10:31N 60°10' E 024°58'0 0.0
2014-Aug-16 09:31N 60°10' E 024°58'0 0.0
2014-Aug-16 08:34N 60°10' E 024°58'0 0.0
2014-Aug-16 07:34N 60°10' E 024°58'0 0.0
2014-Aug-16 06:34N 60°10' E 024°58'0 0.0
2014-Aug-16 05:34N 60°10' E 024°58'0 0.0
2014-Aug-16 04:34N 60°10' E 024°58'0 0.0
2014-Aug-16 03:31N 60°10' E 024°58'0 0.0
2014-Aug-16 02:34N 60°10' E 024°58'0 0.0
2014-Aug-15 18:34N 60°10' E 024°58'0 0.0
2014-Aug-15 17:34N 60°10' E 024°58'0 0.0
2014-Aug-15 16:34N 60°10' E 024°58'0 0.0
2014-Aug-15 15:31N 60°10' E 024°58'0 0.0
2014-Aug-15 14:34N 60°10' E 024°58'0 0.0
2014-Aug-15 13:34N 60°10' E 024°58'0 0.0
2014-Aug-15 12:31N 60°10' E 024°58'0 0.0
2014-Aug-15 11:31N 60°10' E 024°58'0 0.0
2014-Aug-15 10:34N 60°10' E 024°58'0 0.0
2014-Aug-15 09:34N 60°10' E 024°58'0 0.0
2014-Aug-15 08:34N 60°10' E 024°58'0 0.0
2014-Aug-15 07:34N 60°10' E 024°58'0 0.0
2014-Aug-15 06:34N 60°10' E 024°58'0 0.0
2014-Aug-15 05:34N 60°10' E 024°58'0 0.0
2014-Aug-15 04:31N 60°10' E 024°58'0 0.0
2014-Aug-15 03:34N 60°10' E 024°58'0 0.0
2014-Aug-15 02:34N 60°10' E 024°58'0 0.0
2014-Aug-14 21:19N 60°10' E 024°58'0 0.0
2014-Aug-14 18:31N 60°10' E 024°58'0 0.0
2014-Aug-14 17:34N 60°10' E 024°58'0 0.0
2014-Aug-14 16:34N 60°10' E 024°58'0 0.0
2014-Aug-14 15:34N 60°10' E 024°58'0 0.0
2014-Aug-14 14:34N 60°10' E 024°58'0 0.0
2014-Aug-14 13:34N 60°10' E 024°58'0 0.0
2014-Aug-14 12:34N 60°10' E 024°58'0 0.0
2014-Aug-14 11:34N 60°10' E 024°58'0 0.0
2014-Aug-14 10:34N 60°10' E 024°58'0 0.0
2014-Aug-14 09:34N 60°10' E 024°58'0 0.0
2014-Aug-14 08:34N 60°10' E 024°58'0 0.0
2014-Aug-14 07:31N 60°10' E 024°58'0 0.0
2014-Aug-14 06:34N 60°10' E 024°58'0 0.0
2014-Aug-14 05:34N 60°10' E 024°58'0 0.0
2014-Aug-14 04:34N 60°10' E 024°58'0 0.0
2014-Aug-14 03:34N 60°10' E 024°58'0 0.0
2014-Aug-14 02:34N 60°10' E 024°58'0 0.0
2014-Aug-14 01:19N 60°10' E 024°58'0 0.0
2014-Aug-14 00:28N 60°10' E 024°58'0 0.0
2014-Aug-13 23:16N 60°10' E 024°58'0 0.0
2014-Aug-13 20:31N 60°10' E 024°58'0 0.0
2014-Aug-13 18:34N 60°10' E 024°58'0 0.0
2014-Aug-13 17:34N 60°10' E 024°58'0 0.0
2014-Aug-13 16:34N 60°10' E 024°58'0 0.0
2014-Aug-13 15:34N 60°10' E 024°58'0 0.0
2014-Aug-13 14:31N 60°10' E 024°58'0 0.0
2014-Aug-13 13:34N 60°10' E 024°58'0 0.0
2014-Aug-13 12:34N 60°10' E 024°58'0 0.0
2014-Aug-13 11:34N 60°10' E 024°58'0 0.0
2014-Aug-13 10:34N 60°10' E 024°58'0 0.0
2014-Aug-13 09:34N 60°10' E 024°58'0 0.0
2014-Aug-13 08:34N 60°10' E 024°58'0 0.0
2014-Aug-13 07:34N 60°10' E 024°58'0 0.0
2014-Aug-13 06:34N 60°10' E 024°58'0 0.0
2014-Aug-13 05:34N 60°10' E 024°58'0 0.0
2014-Aug-13 04:34N 60°10' E 024°58'0 0.0
2014-Aug-13 03:34N 60°10' E 024°58'0 0.0
2014-Aug-13 02:34N 60°10' E 024°58'  
Track history (hours):
 
Tides and Currents Weather Stations Pressure Air Temp Water Temp Dewpoint Dewpoint Depression Visibility Wind Speed Wind Dir Waves Ship Positions

Ru Kontio

Last reported at 2014-Aug-22 19:33 UTC. Time now 2014-Aug-22 19:41 UTC.
Position N 60°10' E 025°00'.

Type: Other ship. MMSI: 230251000.

Date/timePositionNaut miles runAvg speedWind from/ knotsBaromVisibWave heightAir tempDewpointWater temp
2014-Aug-22 19:33N 60°10' E 025°00'7 7.0
2014-Aug-22 18:30N 60°03' E 024°58'7 7.5
2014-Aug-22 17:33N 59°58' E 025°09'2 1.8
2014-Aug-22 16:28N 59°59' E 025°05'1 0.7
2014-Aug-22 15:25N 59°59' E 025°06'4 4.3
2014-Aug-22 14:34N 59°59' E 025°14'1 0.6
2014-Aug-22 13:09N 59°59' E 025°12'4 2.0
2014-Aug-22 11:21N 59°59' E 025°05'5 2.7
2014-Aug-22 09:32N 59°59' E 025°15'5 4.4
2014-Aug-22 08:26N 59°58' E 025°05'4 3.1
2014-Aug-22 07:13N 59°59' E 025°13'8 9.9
2014-Aug-22 06:26N 59°59' E 024°57'10 0.8
2014-Aug-21 18:21N 59°59' E 025°18'7 3.7
2014-Aug-21 16:30N 59°58' E 025°04'7 7.1
2014-Aug-21 15:33N 59°59' E 025°17'4 4.0
2014-Aug-21 14:27N 59°59' E 025°26'8 2.5
2014-Aug-21 11:20N 59°59' E 025°11'4 4.4
2014-Aug-21 10:31N 59°58' E 025°04'3 2.9
2014-Aug-21 09:33N 59°57' E 024°58'4 3.6
2014-Aug-21 08:33N 60°01' E 024°58'6 6.1
2014-Aug-21 07:34N 60°00' E 025°10'5 4.5
2014-Aug-21 06:26N 59°60' E 025°20'8 7.6
2014-Aug-21 05:23N 59°58' E 025°04'4 4.8
2014-Aug-21 04:31N 59°59' E 025°12'1 0.6
2014-Aug-21 03:32N 59°59' E 025°13'3 0.5
2014-Aug-20 22:33N 59°60' E 025°08'4 0.8
2014-Aug-20 17:33N 59°59' E 025°01'1 1.3
2014-Aug-20 16:27N 59°58' E 024°60'4 4.2
2014-Aug-20 15:33N 60°01' E 024°58'5 5.1
2014-Aug-20 14:33N 60°06' E 024°59'3 3.1
2014-Aug-20 13:33N 60°09' E 025°00'1 1.2
2014-Aug-20 12:32N 60°10' E 024°58'0 0.0
2014-Aug-20 11:32N 60°10' E 024°58'0 0.0
2014-Aug-20 10:32N 60°10' E 024°58'0 0.0
2014-Aug-20 09:31N 60°10' E 024°58'0 0.0
2014-Aug-20 08:31N 60°10' E 024°58'0 0.0
2014-Aug-20 07:31N 60°10' E 024°58'0 0.0
2014-Aug-20 06:31N 60°10' E 024°58'0 0.0
2014-Aug-20 05:31N 60°10' E 024°58'0 0.0
2014-Aug-20 04:31N 60°10' E 024°58'0 0.0
2014-Aug-20 03:31N 60°10' E 024°58'0 0.0
2014-Aug-20 02:31N 60°10' E 024°58'0 0.0
2014-Aug-20 00:31N 60°10' E 024°58'0 0.0
2014-Aug-19 18:29N 60°10' E 024°58'0 0.0
2014-Aug-19 17:32N 60°10' E 024°58'0 0.0
2014-Aug-19 16:32N 60°10' E 024°58'0 0.0
2014-Aug-19 15:32N 60°10' E 024°58'0 0.0
2014-Aug-19 14:32N 60°10' E 024°58'0 0.0
2014-Aug-19 13:32N 60°10' E 024°58'0 0.0
2014-Aug-19 12:32N 60°10' E 024°58'0 0.0
2014-Aug-19 11:32N 60°10' E 024°58'0 0.0
2014-Aug-19 10:32N 60°10' E 024°58'0 0.0
2014-Aug-19 09:32N 60°10' E 024°58'0 0.0
2014-Aug-19 08:32N 60°10' E 024°58'0 0.0
2014-Aug-19 07:32N 60°10' E 024°58'0 0.0
2014-Aug-19 06:32N 60°10' E 024°58'0 0.0
2014-Aug-19 05:32N 60°10' E 024°58'0 0.0
2014-Aug-19 04:32N 60°10' E 024°58'0 0.0
2014-Aug-19 03:32N 60°10' E 024°58'0 0.0
2014-Aug-18 18:26N 60°10' E 024°58'0 0.0
2014-Aug-18 17:29N 60°10' E 024°58'0 0.0
2014-Aug-18 16:34N 60°10' E 024°58'0 0.0
2014-Aug-18 15:34N 60°10' E 024°58'0 0.0
2014-Aug-18 14:34N 60°10' E 024°58'0 0.0
2014-Aug-18 13:31N 60°10' E 024°58'0 0.0
2014-Aug-18 12:34N 60°10' E 024°58'0 0.0
2014-Aug-18 11:31N 60°10' E 024°58'0 0.0
2014-Aug-18 10:34N 60°10' E 024°58'0 0.0
2014-Aug-18 09:31N 60°10' E 024°58'0 0.0
2014-Aug-18 08:34N 60°10' E 024°58'0 0.0
2014-Aug-18 07:34N 60°10' E 024°58'0 0.0
2014-Aug-18 06:31N 60°10' E 024°58'0 0.0
2014-Aug-18 05:34N 60°10' E 024°58'0 0.0
2014-Aug-18 04:34N 60°10' E 024°58'0 0.0
2014-Aug-18 03:34N 60°10' E 024°58'0 0.0
2014-Aug-18 00:19N 60°10' E 024°58'0 0.0
2014-Aug-17 18:31N 60°10' E 024°58'0 0.0
2014-Aug-17 17:34N 60°10' E 024°58'0 0.0
2014-Aug-17 16:34N 60°10' E 024°58'0 0.0
2014-Aug-17 15:31N 60°10' E 024°58'0 0.0
2014-Aug-17 14:34N 60°10' E 024°58'0 0.0
2014-Aug-17 13:34N 60°10' E 024°58'0 0.0
2014-Aug-17 12:34N 60°10' E 024°58'0 0.0
2014-Aug-17 11:34N 60°10' E 024°58'0 0.0
2014-Aug-17 10:34N 60°10' E 024°58'0 0.0
2014-Aug-17 09:34N 60°10' E 024°58'0 0.0
2014-Aug-17 08:34N 60°10' E 024°58'0 0.0
2014-Aug-17 07:34N 60°10' E 024°58'0 0.0
2014-Aug-17 06:34N 60°10' E 024°58'0 0.0
2014-Aug-17 05:34N 60°10' E 024°58'0 0.0
2014-Aug-17 04:31N 60°10' E 024°58'0 0.0
2014-Aug-17 03:31N 60°10' E 024°58'0 0.0
2014-Aug-17 02:34N 60°10' E 024°58'0 0.0
2014-Aug-17 00:10N 60°10' E 024°58'0 0.0
2014-Aug-16 21:31N 60°10' E 024°58'0 0.0
2014-Aug-16 18:31N 60°10' E 024°58'0 0.0
2014-Aug-16 17:34N 60°10' E 024°58'0 0.0
2014-Aug-16 16:34N 60°10' E 024°58'0 0.0
2014-Aug-16 15:34N 60°10' E 024°58'0 0.0
2014-Aug-16 14:34N 60°10' E 024°58'0 0.0
2014-Aug-16 13:34N 60°10' E 024°58'0 0.0
2014-Aug-16 12:34N 60°10' E 024°58'0 0.0
2014-Aug-16 11:34N 60°10' E 024°58'0 0.0
2014-Aug-16 10:31N 60°10' E 024°58'0 0.0
2014-Aug-16 09:31N 60°10' E 024°58'0 0.0
2014-Aug-16 08:34N 60°10' E 024°58'0 0.0
2014-Aug-16 07:34N 60°10' E 024°58'0 0.0
2014-Aug-16 06:34N 60°10' E 024°58'0 0.0
2014-Aug-16 05:34N 60°10' E 024°58'0 0.0
2014-Aug-16 04:34N 60°10' E 024°58'0 0.0
2014-Aug-16 03:31N 60°10' E 024°58'0 0.0
2014-Aug-16 02:34N 60°10' E 024°58'0 0.0
2014-Aug-15 18:34N 60°10' E 024°58'0 0.0
2014-Aug-15 17:34N 60°10' E 024°58'0 0.0
2014-Aug-15 16:34N 60°10' E 024°58'0 0.0
2014-Aug-15 15:31N 60°10' E 024°58'0 0.0
2014-Aug-15 14:34N 60°10' E 024°58'0 0.0
2014-Aug-15 13:34N 60°10' E 024°58'0 0.0
2014-Aug-15 12:31N 60°10' E 024°58'0 0.0
2014-Aug-15 11:31N 60°10' E 024°58'0 0.0
2014-Aug-15 10:34N 60°10' E 024°58'0 0.0
2014-Aug-15 09:34N 60°10' E 024°58'0 0.0
2014-Aug-15 08:34N 60°10' E 024°58'0 0.0
2014-Aug-15 07:34N 60°10' E 024°58'0 0.0
2014-Aug-15 06:34N 60°10' E 024°58'0 0.0
2014-Aug-15 05:34N 60°10' E 024°58'0 0.0
2014-Aug-15 04:31N 60°10' E 024°58'0 0.0
2014-Aug-15 03:34N 60°10' E 024°58'0 0.0
2014-Aug-15 02:34N 60°10' E 024°58'0 0.0
2014-Aug-14 21:19N 60°10' E 024°58'0 0.0
2014-Aug-14 18:31N 60°10' E 024°58'0 0.0
2014-Aug-14 17:34N 60°10' E 024°58'0 0.0
2014-Aug-14 16:34N 60°10' E 024°58'0 0.0
2014-Aug-14 15:34N 60°10' E 024°58'0 0.0
2014-Aug-14 14:34N 60°10' E 024°58'0 0.0
2014-Aug-14 13:34N 60°10' E 024°58'0 0.0
2014-Aug-14 12:34N 60°10' E 024°58'0 0.0
2014-Aug-14 11:34N 60°10' E 024°58'0 0.0
2014-Aug-14 10:34N 60°10' E 024°58'0 0.0
2014-Aug-14 09:34N 60°10' E 024°58'0 0.0
2014-Aug-14 08:34N 60°10' E 024°58'0 0.0
2014-Aug-14 07:31N 60°10' E 024°58'0 0.0
2014-Aug-14 06:34N 60°10' E 024°58'0 0.0
2014-Aug-14 05:34N 60°10' E 024°58'0 0.0
2014-Aug-14 04:34N 60°10' E 024°58'0 0.0
2014-Aug-14 03:34N 60°10' E 024°58'0 0.0
2014-Aug-14 02:34N 60°10' E 024°58'0 0.0
2014-Aug-14 01:19N 60°10' E 024°58'0 0.0
2014-Aug-14 00:28N 60°10' E 024°58'0 0.0
2014-Aug-13 23:16N 60°10' E 024°58'0 0.0
2014-Aug-13 20:31N 60°10' E 024°58'0 0.0
2014-Aug-13 18:34N 60°10' E 024°58'0 0.0
2014-Aug-13 17:34N 60°10' E 024°58'0 0.0
2014-Aug-13 16:34N 60°10' E 024°58'0 0.0
2014-Aug-13 15:34N 60°10' E 024°58'0 0.0
2014-Aug-13 14:31N 60°10' E 024°58'0 0.0
2014-Aug-13 13:34N 60°10' E 024°58'0 0.0
2014-Aug-13 12:34N 60°10' E 024°58'0 0.0
2014-Aug-13 11:34N 60°10' E 024°58'0 0.0
2014-Aug-13 10:34N 60°10' E 024°58'0 0.0
2014-Aug-13 09:34N 60°10' E 024°58'0 0.0
2014-Aug-13 08:34N 60°10' E 024°58'0 0.0
2014-Aug-13 07:34N 60°10' E 024°58'0 0.0
2014-Aug-13 06:34N 60°10' E 024°58'0 0.0
2014-Aug-13 05:34N 60°10' E 024°58'0 0.0
2014-Aug-13 04:34N 60°10' E 024°58'0 0.0
2014-Aug-13 03:34N 60°10' E 024°58'0 0.0
2014-Aug-13 02:34N 60°10' E 024°58'  

Dump ship's entire track history